Flight Track Log - Related Links

Times and Time Zones

All times are in EDT time to prevent confusion due to time zone crossing. See the DAL268 flight status page for this flight to view local times or setup timezone preferences in your user account.

Time Position Orientation Groundspeed Altitude Reporting Facility
EDT Latitude Longitude Course Direction KTS MPH feet Rate Location/Type
Sun 07:56:44 PM 33.6331 -84.3508 64° Northeast 446 513 2,700  Level Atlanta Center
Sun 07:57:44 PM 33.6333 -84.2608 90° East 371 427 4,500 2,000 Climbing Atlanta Center
Sun 07:58:02 PM 33.6333 -84.2333 90° East 271 312 5,300 2,462 Climbing Atlanta TRACON
Sun 07:59:02 PM 33.6333 -84.1500 90° East 282 325 7,700 2,294 Climbing Atlanta TRACON
Sun 07:59:44 PM 33.6336 -84.0711 90° East 295 339 9,200 1,824 Climbing Atlanta Center
Sun 08:00:44 PM 33.6419 -83.9739 84° East 300 345 10,800 1,300 Climbing Atlanta Center
Sun 08:01:44 PM 33.6481 -83.8592 86° East 326 375 11,800 1,450 Climbing Atlanta Center
Sun 08:02:00 PM 33.6587 -83.6121 64° Northeast  Level FlightAware Approximate
Sun 08:02:44 PM 33.6561 -83.7244 86° East 378 435 13,700  Level Atlanta Center
Sun 08:03:44 PM 33.6767 -83.5944 79° East 397 457 15,900 1,850 Climbing Atlanta Center
Sun 08:04:44 PM 33.7261 -83.4717 64° Northeast 397 457 17,400 1,200 Climbing Atlanta Center
Sun 08:05:44 PM 33.7819 -83.3414 63° Northeast 416 479 18,300 1,450 Climbing Atlanta Center
Sun 08:06:44 PM 33.8353 -83.2061 65° Northeast 439 505 20,300 1,700 Climbing Atlanta Center
Sun 08:07:44 PM 33.8928 -83.0678 63° Northeast 452 520 21,700 1,300 Climbing Atlanta Center
Sun 08:08:44 PM 33.9478 -82.9244 65° Northeast 460 529 22,900 1,350 Climbing Atlanta Center
Sun 08:09:44 PM 34.0047 -82.7783 65° Northeast 471 542 24,400 1,500 Climbing Atlanta Center
Sun 08:10:44 PM 34.0578 -82.6472 64° Northeast 471 542 25,900 1,350 Climbing Atlanta Center
Sun 08:11:44 PM 34.1122 -82.5033 65° Northeast 465 535 27,100 1,400 Climbing Atlanta Center
Sun 08:12:44 PM 34.1769 -82.3464 63° Northeast 465 535 28,700 1,450 Climbing Atlanta Center
Sun 08:13:44 PM 34.2314 -82.2047 65° Northeast 465 535 30,000 1,100 Climbing Atlanta Center
Sun 08:14:44 PM 34.2919 -82.0675 62° Northeast 465 535 30,900 500 Climbing Atlanta Center
Sun 08:15:44 PM 34.3606 -81.9325 58° Northeast 465 535 31,000 50 Climbing Atlanta Center
Sun 08:16:44 PM 34.4272 -81.8000 59° Northeast 465 535 31,000  Level Atlanta Center
Sun 08:17:44 PM 34.4953 -81.6594 60° Northeast 465 535 31,000  Level Atlanta Center
Sun 08:18:44 PM 34.5636 -81.5264 58° Northeast 470 541 31,000  Level Atlanta Center
Sun 08:19:44 PM 34.6278 -81.3908 60° Northeast 470 541 31,000  Level Atlanta Center
Sun 08:20:44 PM 34.6897 -81.2700 58° Northeast 470 541 31,000  Level Atlanta Center
Sun 08:21:44 PM 34.7556 -81.1389 59° Northeast 464 534 31,000  Level Atlanta Center
Sun 08:22:44 PM 34.8211 -81.0025 60° Northeast 464 534 31,000  Level Atlanta Center
Sun 08:23:44 PM 34.8864 -80.8661 60° Northeast 465 535 31,000  Level Atlanta Center
Sun 08:24:44 PM 34.9497 -80.7317 60° Northeast 465 535 31,000  Level Atlanta Center
Sun 08:25:44 PM 35.0169 -80.5972 59° Northeast 465 535 31,000  Level Atlanta Center
Sun 08:26:44 PM 35.0900 -80.4494 59° Northeast 459 528 31,000  Level Atlanta Center
Sun 08:29:07 PM 35.2369 -80.1389 60° Northeast 452 520 31,000  Level Washington Center
Sun 08:30:08 PM 35.2958 -80.0175 59° Northeast 452 520 31,000  Level Washington Center
Sun 08:31:08 PM 35.3456 -79.8597 69° East 452 520 31,000  Level Washington Center
Sun 08:32:07 PM 35.3903 -79.7092 70° East 452 520 31,000  Level Washington Center
Sun 08:33:07 PM 35.4328 -79.5636 70° East 452 520 31,000  Level Washington Center
Sun 08:34:09 PM 35.4864 -79.3981 68° East 465 535 31,000  Level Washington Center
Sun 08:35:09 PM 35.5258 -79.2644 70° East 465 535 31,000  Level Washington Center
Sun 08:36:07 PM 35.5747 -79.0983 70° East 465 535 31,000  Level Washington Center
Sun 08:37:07 PM 35.6119 -78.9669 71° East 460 529 31,000  Level Washington Center
Sun 08:38:08 PM 35.6575 -78.8233 69° East 460 529 31,000  Level Washington Center
Sun 08:39:09 PM 35.7011 -78.6767 70° East 460 529 31,000  Level Washington Center
Sun 08:40:08 PM 35.7467 -78.5275 69° East 460 529 31,000  Level Washington Center
Sun 08:41:09 PM 35.7878 -78.3778 71° East 460 529 31,000  Level Washington Center
Sun 08:42:09 PM 35.8308 -78.2283 70° East 460 529 31,000  Level Washington Center
Sun 08:43:07 PM 35.8736 -78.0783 71° East 460 529 31,000  Level Washington Center
Sun 08:44:07 PM 35.9142 -77.9336 71° East 455 524 31,000  Level Washington Center
Sun 08:45:08 PM 35.9567 -77.7833 71° East 455 524 31,000  Level Washington Center
Sun 08:46:08 PM 36.0153 -77.6489 62° Northeast 455 524 31,000  Level Washington Center
Sun 08:47:09 PM 36.0903 -77.5250 53° Northeast 445 512 31,000  Level Washington Center
Sun 08:48:07 PM 36.1633 -77.4033 53° Northeast 445 512 31,000  Level Washington Center
Sun 08:49:08 PM 36.2464 -77.2867 49° Northeast 445 512 31,000  Level Washington Center
Sun 08:50:09 PM 36.3414 -77.1908 39° Northeast 440 506 31,000  Level Washington Center
Sun 08:51:10 PM 36.4386 -77.0947 38° Northeast 440 506 31,000  Level Washington Center
Sun 08:52:07 PM 36.5358 -76.9983 39° Northeast 440 506 31,000  Level Washington Center
Sun 08:53:08 PM 36.6331 -76.9017 39° Northeast 440 506 31,000  Level Washington Center
Sun 08:54:09 PM 36.7300 -76.8072 38° Northeast 440 506 31,000  Level Washington Center
Sun 08:55:08 PM 36.8247 -76.7025 41° Northeast 446 513 31,000  Level Washington Center
Sun 08:56:09 PM 36.8533 -76.5342 78° East 429 494 31,000  Level Washington Center
Sun 08:57:09 PM 36.8461 -76.3758 93° East 421 484 31,000  Level Washington Center
Sun 08:58:09 PM 36.8367 -76.2172 94° East 442 509 31,000  Level Washington Center
Sun 08:59:07 PM 36.8311 -76.0589 92° East 442 509 31,000  Level Washington Center
Sun 09:00:07 PM 36.8419 -75.9008 85° East 449 517 31,000 -50 Level Washington Center
Sun 09:01:08 PM 36.9297 -75.7817 47° Northeast 430 495 30,900  Descending Washington Center
Sun 09:02:09 PM 37.0447 -75.7350 18° North 405 466 31,000 50 Climbing Washington Center
Sun 09:03:09 PM 37.1656 -75.7039 12° North 410 472 31,000  Level Washington Center
Sun 09:04:07 PM 37.2847 -75.6728 12° North 422 486 31,000  Level Washington Center
Sun 09:05:07 PM 37.4056 -75.6414 12° North 429 494 31,000  Level Washington Center
Sun 09:06:08 PM 37.5244 -75.6103 12° North 434 499 31,000  Level Washington Center
Sun 09:07:08 PM 37.6433 -75.5761 13° North 434 499 31,000  Level Washington Center
Sun 09:08:09 PM 37.7622 -75.5472 11° North 434 499 31,000  Level Washington Center
Sun 09:09:09 PM 37.8833 -75.5128 13° North 429 494 31,000  Level Washington Center
Sun 09:10:09 PM 38.0019 -75.4836 11° North 429 494 31,000  Level Washington Center
Sun 09:11:07 PM 38.1189 -75.4386 17° North 429 494 31,000 -51 Level Washington Center
Sun 09:12:07 PM 38.2272 -75.3669 27° Northeast 429 494 30,900  Descending Washington Center
Sun 09:13:08 PM 38.3228 -75.3033 28° Northeast 429 494 31,000  Climbing Washington Center
Sun 09:14:07 PM 38.4311 -75.2314 27° Northeast 434 499 30,900  Descending Washington Center
Sun 09:15:07 PM 38.5414 -75.1589 27° Northeast 434 499 31,000 50 Climbing Washington Center
Sun 09:16:08 PM 38.6453 -75.0919 27° Northeast 429 494 31,000  Level Washington Center
Sun 09:17:09 PM 38.7556 -75.0219 26° Northeast 429 494 31,000  Level Washington Center
Sun 09:18:09 PM 38.8636 -74.9544 26° Northeast 429 494 31,000 -50 Level Washington Center
Sun 09:19:10 PM 38.9736 -74.8842 26° Northeast 429 494 30,900 -706 Descending Washington Center
Sun 09:20:08 PM 39.0817 -74.8108 28° Northeast 429 494 29,600 -2,034 Descending Washington Center
Sun 09:21:08 PM 39.1808 -74.7133 37° Northeast 435 501 26,900 -2,468 Descending Washington Center
Sun 09:22:29 PM 39.3144 -74.5678 40° Northeast 449 517 23,800 -2,340 Descending New York Center
Sun 09:23:29 PM 39.4053 -74.4678 40° Northeast 435 501 21,400 -2,300 Descending New York Center
Sun 09:24:29 PM 39.4831 -74.3806 41° Northeast 418 481 19,200 -1,686 Descending New York Center
Sun 09:25:30 PM 39.5692 -74.2881 40° Northeast 402 463 18,000 -1,008 Descending New York Center
Sun 09:26:28 PM 39.6619 -74.1847 41° Northeast 396 456 17,200 -1,525 Descending New York Center
Sun 09:27:28 PM 39.7436 -74.0969 40° Northeast 390 449 15,000 -2,100 Descending New York Center
Sun 09:28:28 PM 39.8231 -74.0117 39° Northeast 390 449 13,000 -2,017 Descending New York Center
Sun 09:29:27 PM 39.9000 -73.9475 33° Northeast 371 427 11,000 -984 Descending New York Center
Sun 09:30:30 PM 39.9850 -73.8864 29° Northeast 354 407 11,000  Level New York Center
Sun 09:31:28 PM 40.0658 -73.8275 29° Northeast 310 357 11,000 -454 Level New York Center
Sun 09:32:29 PM 40.1381 -73.7711 31° Northeast 303 349 10,100 -1,289 Descending New York Center
Sun 09:33:29 PM 40.2081 -73.7197 29° Northeast 295 339 8,400 -1,519 Descending New York Center
Sun 09:33:48 PM 40.2333 -73.7000 31° Northeast 296 341 8,100 -228 Descending New York TRACON
Sun 09:34:48 PM 40.3000 -73.6500 30° Northeast 294 338 8,100 -120 Level New York TRACON
Sun 09:35:28 PM 40.3506 -73.6114 30° Northeast 295 339 7,900 -100 Descending New York Center
Sun 09:35:48 PM 40.3833 -73.6000 15° North 295 339 8,000 75 Climbing New York TRACON
Sun 09:36:48 PM 40.4500 -73.5500 30° Northeast 294 338 8,000 50 Level New York TRACON
Sun 09:37:48 PM 40.5167 -73.5000 30° Northeast 291 335 8,100 -650 Climbing New York TRACON
Sun 09:38:48 PM 40.6000 -73.4500 24° Northeast 286 329 6,700 -1,450 Descending New York TRACON
Sun 09:39:48 PM 40.6667 -73.4167 21° North 280 322 5,200 -1,095 Descending New York TRACON
Sun 09:40:54 PM 40.7333 -73.4500 339° North 232 267 4,400 -850 Descending New York TRACON
Sun 09:41:48 PM 40.7667 -73.5000 311° West 205 236 3,500 -1,105 Descending New York TRACON
Sun 09:42:48 PM 40.8000 -73.5667 303° West 182 209 2,300 -750 Descending New York TRACON
Sun 09:43:48 PM 40.7833 -73.6167 246° West 171 197 2,000 -150 Descending New York TRACON
Sun 09:44:48 PM 40.7667 -73.6667 246° West 157 181 2,000  Level New York TRACON
Sun 09:45:48 PM 40.7333 -73.6833 201° Southwest 156 180 2,000 -400 Level New York TRACON
Sun 09:46:48 PM 40.7000 -73.7167 217° Southwest 138 159 1,200 -800 Descending New York TRACON
Sun 09:47:48 PM 40.6500 -73.7500 207° Southwest 148 170 400 -800 Descending New York TRACON
Sun 09:49:00 PM 40.6333 -73.7667 217° Southwest  Level FlightAware Approximate
Sun 09:56:00 PM 40.6398 -73.7789 217° Southwest  Level Estimated
Sun 09:57:00 PM 40.6398 -73.7789 217° Southwest  Level Estimated

Login

Don't have an account? Register now (free) for customized features, flight alerts, and more!